sensor_id;sensor_type;location;lat;lon;timestamp;P1;durP1;ratioP1;P2;durP2;ratioP2
10651;SDS011;5374;42.742;23.266;2023-02-10T00:00:40;53.57;;;26.63;;
10651;SDS011;5374;42.742;23.266;2023-02-10T00:03:27;49.57;;;26.00;;
10651;SDS011;5374;42.742;23.266;2023-02-10T00:06:15;49.67;;;28.07;;
10651;SDS011;5374;42.742;23.266;2023-02-10T00:09:03;54.77;;;27.40;;
10651;SDS011;5374;42.742;23.266;2023-02-10T00:11:50;54.17;;;28.27;;
10651;SDS011;5374;42.742;23.266;2023-02-10T00:14:45;47.97;;;26.03;;
10651;SDS011;5374;42.742;23.266;2023-02-10T00:17:33;54.10;;;27.93;;
10651;SDS011;5374;42.742;23.266;2023-02-10T00:20:20;51.07;;;26.83;;
10651;SDS011;5374;42.742;23.266;2023-02-10T00:23:07;52.20;;;26.33;;
10651;SDS011;5374;42.742;23.266;2023-02-10T00:25:54;47.07;;;26.00;;
10651;SDS011;5374;42.742;23.266;2023-02-10T00:28:41;46.27;;;25.23;;
10651;SDS011;5374;42.742;23.266;2023-02-10T00:31:29;42.60;;;23.57;;
10651;SDS011;5374;42.742;23.266;2023-02-10T00:34:17;47.17;;;24.63;;
10651;SDS011;5374;42.742;23.266;2023-02-10T00:37:05;47.60;;;25.33;;
10651;SDS011;5374;42.742;23.266;2023-02-10T00:39:52;91.10;;;44.30;;
10651;SDS011;5374;42.742;23.266;2023-02-10T00:42:40;79.50;;;36.40;;
10651;SDS011;5374;42.742;23.266;2023-02-10T00:45:27;146.53;;;63.37;;
10651;SDS011;5374;42.742;23.266;2023-02-10T00:48:14;62.13;;;31.43;;
10651;SDS011;5374;42.742;23.266;2023-02-10T00:51:03;59.27;;;30.37;;
10651;SDS011;5374;42.742;23.266;2023-02-10T00:53:51;60.80;;;30.87;;
10651;SDS011;5374;42.742;23.266;2023-02-10T00:56:38;69.53;;;32.83;;
10651;SDS011;5374;42.742;23.266;2023-02-10T00:59:25;69.43;;;35.70;;
10651;SDS011;5374;42.742;23.266;2023-02-10T01:02:12;70.37;;;36.20;;
10651;SDS011;5374;42.742;23.266;2023-02-10T01:04:59;80.27;;;39.60;;
10651;SDS011;5374;42.742;23.266;2023-02-10T01:07:50;72.70;;;39.23;;
10651;SDS011;5374;42.742;23.266;2023-02-10T01:10:38;77.77;;;37.50;;
10651;SDS011;5374;42.742;23.266;2023-02-10T01:13:25;61.47;;;34.43;;
10651;SDS011;5374;42.742;23.266;2023-02-10T01:16:13;74.27;;;35.67;;
10651;SDS011;5374;42.742;23.266;2023-02-10T01:19:02;68.40;;;36.03;;
10651;SDS011;5374;42.742;23.266;2023-02-10T01:21:49;60.30;;;32.07;;
10651;SDS011;5374;42.742;23.266;2023-02-10T01:24:38;57.13;;;30.80;;
10651;SDS011;5374;42.742;23.266;2023-02-10T01:27:25;53.17;;;30.30;;
10651;SDS011;5374;42.742;23.266;2023-02-10T01:30:13;64.37;;;31.77;;
10651;SDS011;5374;42.742;23.266;2023-02-10T01:33:00;60.93;;;31.93;;
10651;SDS011;5374;42.742;23.266;2023-02-10T01:35:48;70.07;;;34.80;;
10651;SDS011;5374;42.742;23.266;2023-02-10T01:38:35;110.00;;;44.20;;
10651;SDS011;5374;42.742;23.266;2023-02-10T01:41:24;79.30;;;34.73;;
10651;SDS011;5374;42.742;23.266;2023-02-10T01:47:31;57.57;;;28.40;;
10651;SDS011;5374;42.742;23.266;2023-02-10T01:50:21;56.87;;;27.90;;
10651;SDS011;5374;42.742;23.266;2023-02-10T01:53:11;58.03;;;29.67;;
10651;SDS011;5374;42.742;23.266;2023-02-10T01:56:00;51.00;;;27.60;;
10651;SDS011;5374;42.742;23.266;2023-02-10T01:58:50;48.57;;;26.10;;
10651;SDS011;5374;42.742;23.266;2023-02-10T02:01:37;46.67;;;23.80;;
10651;SDS011;5374;42.742;23.266;2023-02-10T02:04:24;47.87;;;25.13;;
10651;SDS011;5374;42.742;23.266;2023-02-10T02:07:11;49.70;;;23.67;;
10651;SDS011;5374;42.742;23.266;2023-02-10T02:09:59;39.57;;;21.70;;
10651;SDS011;5374;42.742;23.266;2023-02-10T02:12:50;48.90;;;23.83;;
10651;SDS011;5374;42.742;23.266;2023-02-10T02:15:44;51.17;;;23.63;;
10651;SDS011;5374;42.742;23.266;2023-02-10T02:18:39;51.37;;;26.60;;
10651;SDS011;5374;42.742;23.266;2023-02-10T02:21:46;51.60;;;25.30;;
10651;SDS011;5374;42.742;23.266;2023-02-10T02:25:02;51.03;;;24.73;;
10651;SDS011;5374;42.742;23.266;2023-02-10T02:28:11;47.97;;;23.27;;
10651;SDS011;5374;42.742;23.266;2023-02-10T02:34:33;46.60;;;23.83;;
10651;SDS011;5374;42.742;23.266;2023-02-10T02:37:26;44.27;;;23.90;;
10651;SDS011;5374;42.742;23.266;2023-02-10T02:40:16;49.57;;;24.10;;
10651;SDS011;5374;42.742;23.266;2023-02-10T02:43:03;44.97;;;23.97;;
10651;SDS011;5374;42.742;23.266;2023-02-10T02:45:53;41.53;;;23.07;;
10651;SDS011;5374;42.742;23.266;2023-02-10T02:48:49;46.60;;;23.90;;
10651;SDS011;5374;42.742;23.266;2023-02-10T02:51:46;46.47;;;23.03;;
10651;SDS011;5374;42.742;23.266;2023-02-10T02:54:38;41.57;;;23.40;;
10651;SDS011;5374;42.742;23.266;2023-02-10T02:57:33;48.00;;;24.10;;
10651;SDS011;5374;42.742;23.266;2023-02-10T03:00:29;45.63;;;21.73;;
10651;SDS011;5374;42.742;23.266;2023-02-10T03:03:18;43.63;;;22.50;;
10651;SDS011;5374;42.742;23.266;2023-02-10T03:06:07;39.50;;;21.03;;
10651;SDS011;5374;42.742;23.266;2023-02-10T03:08:55;43.73;;;22.13;;
10651;SDS011;5374;42.742;23.266;2023-02-10T03:11:42;39.43;;;21.33;;
10651;SDS011;5374;42.742;23.266;2023-02-10T03:14:29;38.97;;;21.37;;
10651;SDS011;5374;42.742;23.266;2023-02-10T03:17:16;39.53;;;21.60;;
10651;SDS011;5374;42.742;23.266;2023-02-10T03:20:04;69.50;;;33.67;;
10651;SDS011;5374;42.742;23.266;2023-02-10T03:22:53;81.10;;;40.90;;
10651;SDS011;5374;42.742;23.266;2023-02-10T03:25:40;50.87;;;27.27;;
10651;SDS011;5374;42.742;23.266;2023-02-10T03:28:27;43.17;;;23.03;;
10651;SDS011;5374;42.742;23.266;2023-02-10T03:31:14;37.37;;;22.47;;
10651;SDS011;5374;42.742;23.266;2023-02-10T03:34:01;53.87;;;26.20;;
10651;SDS011;5374;42.742;23.266;2023-02-10T03:36:49;59.57;;;30.97;;
10651;SDS011;5374;42.742;23.266;2023-02-10T03:39:37;50.83;;;28.33;;
10651;SDS011;5374;42.742;23.266;2023-02-10T03:42:24;48.07;;;24.03;;
10651;SDS011;5374;42.742;23.266;2023-02-10T03:45:11;39.77;;;23.37;;
10651;SDS011;5374;42.742;23.266;2023-02-10T03:47:59;43.83;;;25.23;;
10651;SDS011;5374;42.742;23.266;2023-02-10T03:50:47;52.93;;;29.97;;
10651;SDS011;5374;42.742;23.266;2023-02-10T03:53:35;45.73;;;24.97;;
10651;SDS011;5374;42.742;23.266;2023-02-10T03:56:23;47.03;;;25.50;;
10651;SDS011;5374;42.742;23.266;2023-02-10T03:59:10;52.93;;;24.43;;
10651;SDS011;5374;42.742;23.266;2023-02-10T04:01:57;43.47;;;23.17;;
10651;SDS011;5374;42.742;23.266;2023-02-10T04:04:44;47.10;;;22.93;;
10651;SDS011;5374;42.742;23.266;2023-02-10T04:07:32;49.57;;;26.10;;
10651;SDS011;5374;42.742;23.266;2023-02-10T04:10:19;49.67;;;25.53;;
10651;SDS011;5374;42.742;23.266;2023-02-10T04:13:08;53.40;;;25.80;;
10651;SDS011;5374;42.742;23.266;2023-02-10T04:16:01;47.80;;;25.67;;
10651;SDS011;5374;42.742;23.266;2023-02-10T04:18:50;42.83;;;25.10;;
10651;SDS011;5374;42.742;23.266;2023-02-10T04:21:37;45.53;;;23.03;;
10651;SDS011;5374;42.742;23.266;2023-02-10T04:24:24;45.93;;;23.33;;
10651;SDS011;5374;42.742;23.266;2023-02-10T04:27:11;48.47;;;23.73;;
10651;SDS011;5374;42.742;23.266;2023-02-10T04:30:00;45.57;;;23.90;;
10651;SDS011;5374;42.742;23.266;2023-02-10T04:32:47;47.20;;;24.70;;
10651;SDS011;5374;42.742;23.266;2023-02-10T04:35:34;53.70;;;26.20;;
10651;SDS011;5374;42.742;23.266;2023-02-10T04:38:22;64.13;;;33.60;;
10651;SDS011;5374;42.742;23.266;2023-02-10T04:41:11;59.63;;;30.80;;
10651;SDS011;5374;42.742;23.266;2023-02-10T04:44:03;50.90;;;29.30;;
10651;SDS011;5374;42.742;23.266;2023-02-10T04:46:52;53.03;;;29.20;;
10651;SDS011;5374;42.742;23.266;2023-02-10T04:49:39;58.33;;;28.50;;
10651;SDS011;5374;42.742;23.266;2023-02-10T04:52:26;52.00;;;28.13;;
10651;SDS011;5374;42.742;23.266;2023-02-10T04:55:13;55.20;;;26.33;;
10651;SDS011;5374;42.742;23.266;2023-02-10T04:58:01;49.80;;;25.83;;
10651;SDS011;5374;42.742;23.266;2023-02-10T05:00:48;49.30;;;26.07;;
10651;SDS011;5374;42.742;23.266;2023-02-10T05:03:48;88.43;;;37.47;;
10651;SDS011;5374;42.742;23.266;2023-02-10T05:06:35;236.63;;;90.20;;
10651;SDS011;5374;42.742;23.266;2023-02-10T05:09:23;85.53;;;39.03;;
10651;SDS011;5374;42.742;23.266;2023-02-10T05:12:12;53.43;;;28.17;;
10651;SDS011;5374;42.742;23.266;2023-02-10T05:14:59;66.83;;;33.13;;
10651;SDS011;5374;42.742;23.266;2023-02-10T05:17:46;104.83;;;46.57;;
10651;SDS011;5374;42.742;23.266;2023-02-10T05:20:35;78.33;;;38.23;;
10651;SDS011;5374;42.742;23.266;2023-02-10T05:23:23;80.87;;;34.83;;
10651;SDS011;5374;42.742;23.266;2023-02-10T05:26:10;72.37;;;32.33;;
10651;SDS011;5374;42.742;23.266;2023-02-10T05:28:58;69.07;;;27.73;;
10651;SDS011;5374;42.742;23.266;2023-02-10T05:31:45;57.83;;;27.27;;
10651;SDS011;5374;42.742;23.266;2023-02-10T05:34:32;56.30;;;25.10;;
10651;SDS011;5374;42.742;23.266;2023-02-10T05:37:21;55.40;;;26.80;;
10651;SDS011;5374;42.742;23.266;2023-02-10T05:40:08;46.07;;;24.33;;
10651;SDS011;5374;42.742;23.266;2023-02-10T05:42:57;49.80;;;23.33;;
10651;SDS011;5374;42.742;23.266;2023-02-10T05:45:45;48.73;;;27.10;;
10651;SDS011;5374;42.742;23.266;2023-02-10T05:48:32;48.67;;;25.20;;
10651;SDS011;5374;42.742;23.266;2023-02-10T05:51:19;57.83;;;29.10;;
10651;SDS011;5374;42.742;23.266;2023-02-10T05:54:08;100.80;;;38.43;;
10651;SDS011;5374;42.742;23.266;2023-02-10T05:56:58;83.77;;;33.77;;
10651;SDS011;5374;42.742;23.266;2023-02-10T05:59:45;58.10;;;30.20;;
10651;SDS011;5374;42.742;23.266;2023-02-10T06:02:32;58.83;;;28.10;;
10651;SDS011;5374;42.742;23.266;2023-02-10T06:05:20;59.90;;;30.50;;
10651;SDS011;5374;42.742;23.266;2023-02-10T06:08:07;90.33;;;37.57;;
10651;SDS011;5374;42.742;23.266;2023-02-10T06:10:56;85.67;;;39.43;;
10651;SDS011;5374;42.742;23.266;2023-02-10T06:13:44;142.73;;;55.77;;
10651;SDS011;5374;42.742;23.266;2023-02-10T06:16:31;154.53;;;57.50;;
10651;SDS011;5374;42.742;23.266;2023-02-10T06:19:18;132.70;;;47.63;;
10651;SDS011;5374;42.742;23.266;2023-02-10T06:22:06;141.77;;;47.17;;
10651;SDS011;5374;42.742;23.266;2023-02-10T06:24:54;171.47;;;51.47;;
10651;SDS011;5374;42.742;23.266;2023-02-10T06:27:43;185.53;;;54.30;;
10651;SDS011;5374;42.742;23.266;2023-02-10T06:30:30;163.90;;;51.13;;
10651;SDS011;5374;42.742;23.266;2023-02-10T06:33:17;139.57;;;50.70;;
10651;SDS011;5374;42.742;23.266;2023-02-10T06:36:05;118.47;;;47.50;;
10651;SDS011;5374;42.742;23.266;2023-02-10T06:38:53;142.17;;;53.97;;
10651;SDS011;5374;42.742;23.266;2023-02-10T06:41:41;109.43;;;44.73;;
10651;SDS011;5374;42.742;23.266;2023-02-10T06:44:29;94.83;;;41.77;;
10651;SDS011;5374;42.742;23.266;2023-02-10T06:47:16;86.47;;;39.20;;
10651;SDS011;5374;42.742;23.266;2023-02-10T06:50:04;89.33;;;39.73;;
10651;SDS011;5374;42.742;23.266;2023-02-10T06:52:52;78.57;;;41.63;;
10651;SDS011;5374;42.742;23.266;2023-02-10T06:55:39;110.00;;;52.00;;
10651;SDS011;5374;42.742;23.266;2023-02-10T06:58:26;89.83;;;45.33;;
10651;SDS011;5374;42.742;23.266;2023-02-10T07:01:15;68.47;;;38.07;;
10651;SDS011;5374;42.742;23.266;2023-02-10T07:04:04;48.87;;;32.37;;
10651;SDS011;5374;42.742;23.266;2023-02-10T07:06:51;38.03;;;27.10;;
10651;SDS011;5374;42.742;23.266;2023-02-10T07:09:38;36.17;;;25.03;;
10651;SDS011;5374;42.742;23.266;2023-02-10T07:12:25;37.47;;;24.03;;
10651;SDS011;5374;42.742;23.266;2023-02-10T07:15:12;40.00;;;24.17;;
10651;SDS011;5374;42.742;23.266;2023-02-10T07:18:01;37.27;;;24.40;;
10651;SDS011;5374;42.742;23.266;2023-02-10T07:20:48;33.27;;;24.93;;
10651;SDS011;5374;42.742;23.266;2023-02-10T07:23:35;34.50;;;23.07;;
10651;SDS011;5374;42.742;23.266;2023-02-10T07:26:22;37.27;;;24.50;;
10651;SDS011;5374;42.742;23.266;2023-02-10T07:29:09;33.57;;;22.87;;
10651;SDS011;5374;42.742;23.266;2023-02-10T07:31:56;36.30;;;22.60;;
10651;SDS011;5374;42.742;23.266;2023-02-10T07:34:46;40.77;;;25.50;;
10651;SDS011;5374;42.742;23.266;2023-02-10T07:37:35;41.63;;;26.03;;
10651;SDS011;5374;42.742;23.266;2023-02-10T07:40:22;43.23;;;25.50;;
10651;SDS011;5374;42.742;23.266;2023-02-10T07:43:09;39.47;;;23.03;;
10651;SDS011;5374;42.742;23.266;2023-02-10T07:45:56;38.03;;;21.60;;
10651;SDS011;5374;42.742;23.266;2023-02-10T07:48:43;33.70;;;21.20;;
10651;SDS011;5374;42.742;23.266;2023-02-10T07:51:31;33.10;;;18.40;;
10651;SDS011;5374;42.742;23.266;2023-02-10T07:54:19;39.33;;;21.87;;
10651;SDS011;5374;42.742;23.266;2023-02-10T07:57:06;44.20;;;23.40;;
10651;SDS011;5374;42.742;23.266;2023-02-10T07:59:53;31.07;;;17.87;;
10651;SDS011;5374;42.742;23.266;2023-02-10T08:02:40;32.77;;;18.50;;
10651;SDS011;5374;42.742;23.266;2023-02-10T08:05:27;29.83;;;16.63;;
10651;SDS011;5374;42.742;23.266;2023-02-10T08:08:16;25.80;;;16.03;;
10651;SDS011;5374;42.742;23.266;2023-02-10T08:11:03;28.33;;;16.50;;
10651;SDS011;5374;42.742;23.266;2023-02-10T08:13:51;28.60;;;17.67;;
10651;SDS011;5374;42.742;23.266;2023-02-10T08:16:38;28.93;;;17.63;;
10651;SDS011;5374;42.742;23.266;2023-02-10T08:19:27;69.83;;;41.17;;
10651;SDS011;5374;42.742;23.266;2023-02-10T08:22:15;161.63;;;79.13;;
10651;SDS011;5374;42.742;23.266;2023-02-10T08:25:04;29.50;;;19.07;;
10651;SDS011;5374;42.742;23.266;2023-02-10T08:27:51;25.33;;;15.27;;
10651;SDS011;5374;42.742;23.266;2023-02-10T08:30:38;20.10;;;12.43;;
10651;SDS011;5374;42.742;23.266;2023-02-10T08:33:26;20.73;;;12.57;;
10651;SDS011;5374;42.742;23.266;2023-02-10T08:36:13;20.27;;;13.03;;
10651;SDS011;5374;42.742;23.266;2023-02-10T08:39:02;26.70;;;15.33;;
10651;SDS011;5374;42.742;23.266;2023-02-10T08:41:51;22.23;;;14.03;;
10651;SDS011;5374;42.742;23.266;2023-02-10T08:44:38;25.97;;;15.50;;
10651;SDS011;5374;42.742;23.266;2023-02-10T08:47:25;24.07;;;14.67;;
10651;SDS011;5374;42.742;23.266;2023-02-10T08:50:13;26.67;;;14.57;;
10651;SDS011;5374;42.742;23.266;2023-02-10T08:53:00;25.80;;;15.03;;
10651;SDS011;5374;42.742;23.266;2023-02-10T08:55:54;27.13;;;15.67;;
10651;SDS011;5374;42.742;23.266;2023-02-10T08:58:44;33.20;;;22.50;;
10651;SDS011;5374;42.742;23.266;2023-02-10T09:01:32;37.87;;;19.87;;
10651;SDS011;5374;42.742;23.266;2023-02-10T09:04:19;30.87;;;16.73;;
10651;SDS011;5374;42.742;23.266;2023-02-10T09:07:07;24.63;;;15.63;;
10651;SDS011;5374;42.742;23.266;2023-02-10T09:09:55;30.80;;;17.40;;
10651;SDS011;5374;42.742;23.266;2023-02-10T09:12:43;25.17;;;15.47;;
10651;SDS011;5374;42.742;23.266;2023-02-10T09:15:31;26.47;;;15.77;;
10651;SDS011;5374;42.742;23.266;2023-02-10T09:18:19;23.57;;;15.10;;
10651;SDS011;5374;42.742;23.266;2023-02-10T09:21:06;22.27;;;14.60;;
10651;SDS011;5374;42.742;23.266;2023-02-10T09:23:53;24.30;;;14.40;;
10651;SDS011;5374;42.742;23.266;2023-02-10T09:26:40;25.90;;;16.27;;
10651;SDS011;5374;42.742;23.266;2023-02-10T09:29:27;26.10;;;15.80;;
10651;SDS011;5374;42.742;23.266;2023-02-10T09:32:16;23.97;;;15.17;;
10651;SDS011;5374;42.742;23.266;2023-02-10T09:35:03;25.37;;;15.43;;
10651;SDS011;5374;42.742;23.266;2023-02-10T09:37:51;29.57;;;16.43;;
10651;SDS011;5374;42.742;23.266;2023-02-10T09:40:43;26.87;;;14.93;;
10651;SDS011;5374;42.742;23.266;2023-02-10T09:43:47;27.87;;;14.83;;
10651;SDS011;5374;42.742;23.266;2023-02-10T09:50:28;23.03;;;15.47;;
10651;SDS011;5374;42.742;23.266;2023-02-10T09:53:23;23.87;;;14.93;;
10651;SDS011;5374;42.742;23.266;2023-02-10T09:56:14;23.67;;;15.93;;
10651;SDS011;5374;42.742;23.266;2023-02-10T09:59:05;29.37;;;15.40;;
10651;SDS011;5374;42.742;23.266;2023-02-10T10:01:58;23.80;;;15.77;;
10651;SDS011;5374;42.742;23.266;2023-02-10T10:04:49;28.77;;;15.13;;
10651;SDS011;5374;42.742;23.266;2023-02-10T10:07:39;30.13;;;18.43;;
10651;SDS011;5374;42.742;23.266;2023-02-10T10:10:32;35.50;;;22.10;;
10651;SDS011;5374;42.742;23.266;2023-02-10T10:13:27;26.53;;;16.23;;
10651;SDS011;5374;42.742;23.266;2023-02-10T10:16:18;24.43;;;15.60;;
10651;SDS011;5374;42.742;23.266;2023-02-10T10:19:14;24.87;;;15.47;;
10651;SDS011;5374;42.742;23.266;2023-02-10T10:22:17;21.90;;;15.20;;
10651;SDS011;5374;42.742;23.266;2023-02-10T10:25:31;20.73;;;14.33;;
10651;SDS011;5374;42.742;23.266;2023-02-10T10:28:37;24.03;;;15.67;;
10651;SDS011;5374;42.742;23.266;2023-02-10T10:31:34;33.20;;;21.47;;
10651;SDS011;5374;42.742;23.266;2023-02-10T10:34:27;31.90;;;20.87;;
10651;SDS011;5374;42.742;23.266;2023-02-10T10:37:23;20.33;;;13.87;;
10651;SDS011;5374;42.742;23.266;2023-02-10T10:40:14;25.33;;;16.63;;
10651;SDS011;5374;42.742;23.266;2023-02-10T10:43:08;28.07;;;18.33;;
10651;SDS011;5374;42.742;23.266;2023-02-10T10:46:01;22.30;;;13.97;;
10651;SDS011;5374;42.742;23.266;2023-02-10T10:48:52;25.73;;;11.83;;
10651;SDS011;5374;42.742;23.266;2023-02-10T10:51:40;18.53;;;12.47;;
10651;SDS011;5374;42.742;23.266;2023-02-10T10:54:28;17.50;;;10.90;;
10651;SDS011;5374;42.742;23.266;2023-02-10T10:57:17;20.33;;;11.40;;
10651;SDS011;5374;42.742;23.266;2023-02-10T11:00:13;20.00;;;11.90;;
10651;SDS011;5374;42.742;23.266;2023-02-10T11:03:06;22.57;;;14.27;;
10651;SDS011;5374;42.742;23.266;2023-02-10T11:06:03;26.93;;;15.47;;
10651;SDS011;5374;42.742;23.266;2023-02-10T11:08:54;26.83;;;15.00;;
10651;SDS011;5374;42.742;23.266;2023-02-10T11:11:46;19.53;;;13.13;;
10651;SDS011;5374;42.742;23.266;2023-02-10T11:14:36;27.40;;;15.47;;
10651;SDS011;5374;42.742;23.266;2023-02-10T11:17:30;24.27;;;16.87;;
10651;SDS011;5374;42.742;23.266;2023-02-10T11:20:24;26.53;;;17.20;;
10651;SDS011;5374;42.742;23.266;2023-02-10T11:23:14;24.93;;;15.63;;
10651;SDS011;5374;42.742;23.266;2023-02-10T11:26:03;30.20;;;17.90;;
10651;SDS011;5374;42.742;23.266;2023-02-10T11:28:52;29.43;;;15.70;;
10651;SDS011;5374;42.742;23.266;2023-02-10T11:31:41;30.63;;;18.03;;
10651;SDS011;5374;42.742;23.266;2023-02-10T11:34:30;27.03;;;16.13;;
10651;SDS011;5374;42.742;23.266;2023-02-10T11:37:21;23.40;;;15.37;;
10651;SDS011;5374;42.742;23.266;2023-02-10T11:40:16;25.77;;;14.87;;
10651;SDS011;5374;42.742;23.266;2023-02-10T11:43:06;33.80;;;20.80;;
10651;SDS011;5374;42.742;23.266;2023-02-10T11:45:55;35.00;;;20.93;;
10651;SDS011;5374;42.742;23.266;2023-02-10T11:48:51;23.10;;;15.70;;
10651;SDS011;5374;42.742;23.266;2023-02-10T11:51:50;25.70;;;16.27;;
10651;SDS011;5374;42.742;23.266;2023-02-10T11:54:37;22.10;;;12.30;;
10651;SDS011;5374;42.742;23.266;2023-02-10T11:57:32;18.57;;;11.37;;
10651;SDS011;5374;42.742;23.266;2023-02-10T12:00:48;18.77;;;11.60;;
10651;SDS011;5374;42.742;23.266;2023-02-10T12:03:44;22.13;;;13.50;;
10651;SDS011;5374;42.742;23.266;2023-02-10T12:06:44;24.53;;;14.30;;
10651;SDS011;5374;42.742;23.266;2023-02-10T12:09:40;21.30;;;12.83;;
10651;SDS011;5374;42.742;23.266;2023-02-10T12:12:34;22.30;;;12.80;;
10651;SDS011;5374;42.742;23.266;2023-02-10T12:15:31;22.67;;;13.07;;
10651;SDS011;5374;42.742;23.266;2023-02-10T12:18:31;18.97;;;13.03;;
10651;SDS011;5374;42.742;23.266;2023-02-10T12:24:57;21.23;;;13.33;;
10651;SDS011;5374;42.742;23.266;2023-02-10T12:27:57;20.53;;;13.97;;
10651;SDS011;5374;42.742;23.266;2023-02-10T12:30:49;16.70;;;11.43;;
10651;SDS011;5374;42.742;23.266;2023-02-10T12:33:47;45.10;;;24.83;;
10651;SDS011;5374;42.742;23.266;2023-02-10T12:36:47;24.20;;;14.57;;
10651;SDS011;5374;42.742;23.266;2023-02-10T12:39:44;20.00;;;11.40;;
10651;SDS011;5374;42.742;23.266;2023-02-10T12:42:40;20.53;;;13.73;;
10651;SDS011;5374;42.742;23.266;2023-02-10T12:45:36;24.50;;;15.00;;
10651;SDS011;5374;42.742;23.266;2023-02-10T12:48:30;16.33;;;10.70;;
10651;SDS011;5374;42.742;23.266;2023-02-10T12:51:41;18.13;;;10.47;;
10651;SDS011;5374;42.742;23.266;2023-02-10T12:54:53;16.27;;;10.17;;
10651;SDS011;5374;42.742;23.266;2023-02-10T12:57:44;14.47;;;10.10;;
10651;SDS011;5374;42.742;23.266;2023-02-10T13:00:34;20.10;;;9.40;;
10651;SDS011;5374;42.742;23.266;2023-02-10T13:03:25;13.70;;;9.33;;
10651;SDS011;5374;42.742;23.266;2023-02-10T13:06:20;12.50;;;8.30;;
10651;SDS011;5374;42.742;23.266;2023-02-10T13:09:14;16.30;;;8.27;;
10651;SDS011;5374;42.742;23.266;2023-02-10T13:12:13;10.57;;;7.23;;
10651;SDS011;5374;42.742;23.266;2023-02-10T13:15:05;12.27;;;7.50;;
10651;SDS011;5374;42.742;23.266;2023-02-10T13:18:00;9.03;;;7.00;;
10651;SDS011;5374;42.742;23.266;2023-02-10T13:20:49;13.57;;;8.57;;
10651;SDS011;5374;42.742;23.266;2023-02-10T13:23:46;13.33;;;9.23;;
10651;SDS011;5374;42.742;23.266;2023-02-10T13:26:38;12.03;;;7.73;;
10651;SDS011;5374;42.742;23.266;2023-02-10T13:29:40;12.43;;;7.53;;
10651;SDS011;5374;42.742;23.266;2023-02-10T13:32:37;13.47;;;6.47;;
10651;SDS011;5374;42.742;23.266;2023-02-10T13:35:34;8.90;;;6.37;;
10651;SDS011;5374;42.742;23.266;2023-02-10T13:38:21;11.50;;;8.00;;
10651;SDS011;5374;42.742;23.266;2023-02-10T13:41:22;11.67;;;7.77;;
10651;SDS011;5374;42.742;23.266;2023-02-10T13:44:32;10.47;;;7.73;;
10651;SDS011;5374;42.742;23.266;2023-02-10T13:47:32;11.83;;;9.03;;
10651;SDS011;5374;42.742;23.266;2023-02-10T13:50:27;13.53;;;9.40;;
10651;SDS011;5374;42.742;23.266;2023-02-10T13:53:27;13.03;;;7.50;;
10651;SDS011;5374;42.742;23.266;2023-02-10T13:56:25;19.07;;;15.57;;
10651;SDS011;5374;42.742;23.266;2023-02-10T13:59:23;12.07;;;8.53;;
10651;SDS011;5374;42.742;23.266;2023-02-10T14:02:18;11.27;;;7.40;;
10651;SDS011;5374;42.742;23.266;2023-02-10T14:05:22;14.47;;;7.83;;
10651;SDS011;5374;42.742;23.266;2023-02-10T14:08:12;12.13;;;8.10;;
10651;SDS011;5374;42.742;23.266;2023-02-10T14:11:02;10.27;;;7.40;;
10651;SDS011;5374;42.742;23.266;2023-02-10T14:13:56;10.20;;;6.40;;
10651;SDS011;5374;42.742;23.266;2023-02-10T14:16:45;12.50;;;6.63;;
10651;SDS011;5374;42.742;23.266;2023-02-10T14:19:35;9.43;;;6.20;;
10651;SDS011;5374;42.742;23.266;2023-02-10T14:22:26;13.17;;;9.87;;
10651;SDS011;5374;42.742;23.266;2023-02-10T14:25:18;19.10;;;7.93;;
10651;SDS011;5374;42.742;23.266;2023-02-10T14:28:17;14.30;;;7.27;;
10651;SDS011;5374;42.742;23.266;2023-02-10T14:31:11;9.40;;;6.17;;
10651;SDS011;5374;42.742;23.266;2023-02-10T14:34:01;18.40;;;14.07;;
10651;SDS011;5374;42.742;23.266;2023-02-10T14:36:50;20.57;;;13.93;;
10651;SDS011;5374;42.742;23.266;2023-02-10T14:39:48;17.90;;;11.07;;
10651;SDS011;5374;42.742;23.266;2023-02-10T14:42:37;10.73;;;8.20;;
10651;SDS011;5374;42.742;23.266;2023-02-10T14:45:28;59.03;;;34.40;;
10651;SDS011;5374;42.742;23.266;2023-02-10T14:48:16;46.87;;;27.73;;
10651;SDS011;5374;42.742;23.266;2023-02-10T14:51:17;28.63;;;18.17;;
10651;SDS011;5374;42.742;23.266;2023-02-10T14:54:09;15.97;;;11.27;;
10651;SDS011;5374;42.742;23.266;2023-02-10T14:56:59;16.33;;;10.83;;
10651;SDS011;5374;42.742;23.266;2023-02-10T14:59:51;18.20;;;10.87;;
10651;SDS011;5374;42.742;23.266;2023-02-10T15:02:40;12.73;;;9.27;;
10651;SDS011;5374;42.742;23.266;2023-02-10T15:05:34;15.60;;;10.50;;
10651;SDS011;5374;42.742;23.266;2023-02-10T15:08:28;17.37;;;11.47;;
10651;SDS011;5374;42.742;23.266;2023-02-10T15:11:21;19.57;;;12.07;;
10651;SDS011;5374;42.742;23.266;2023-02-10T15:14:32;21.27;;;10.53;;
10651;SDS011;5374;42.742;23.266;2023-02-10T15:17:22;19.47;;;10.67;;
10651;SDS011;5374;42.742;23.266;2023-02-10T15:20:21;22.67;;;12.73;;
10651;SDS011;5374;42.742;23.266;2023-02-10T15:23:14;29.37;;;15.20;;
10651;SDS011;5374;42.742;23.266;2023-02-10T15:26:04;22.23;;;14.73;;
10651;SDS011;5374;42.742;23.266;2023-02-10T15:28:58;23.43;;;14.23;;
10651;SDS011;5374;42.742;23.266;2023-02-10T15:31:53;27.90;;;15.70;;
10651;SDS011;5374;42.742;23.266;2023-02-10T15:34:42;26.20;;;15.63;;
10651;SDS011;5374;42.742;23.266;2023-02-10T15:37:30;28.93;;;15.70;;
10651;SDS011;5374;42.742;23.266;2023-02-10T15:40:20;32.70;;;16.97;;
10651;SDS011;5374;42.742;23.266;2023-02-10T15:43:21;31.07;;;19.43;;
10651;SDS011;5374;42.742;23.266;2023-02-10T15:46:12;31.37;;;19.87;;
10651;SDS011;5374;42.742;23.266;2023-02-10T15:49:07;34.20;;;19.93;;
10651;SDS011;5374;42.742;23.266;2023-02-10T15:51:56;31.43;;;19.07;;
10651;SDS011;5374;42.742;23.266;2023-02-10T15:54:43;29.40;;;19.20;;
10651;SDS011;5374;42.742;23.266;2023-02-10T15:57:31;33.03;;;20.00;;
10651;SDS011;5374;42.742;23.266;2023-02-10T16:00:20;39.27;;;19.77;;
10651;SDS011;5374;42.742;23.266;2023-02-10T16:03:10;31.13;;;17.30;;
10651;SDS011;5374;42.742;23.266;2023-02-10T16:06:00;32.80;;;16.33;;
10651;SDS011;5374;42.742;23.266;2023-02-10T16:08:47;26.47;;;14.93;;
10651;SDS011;5374;42.742;23.266;2023-02-10T16:11:35;45.00;;;17.57;;
10651;SDS011;5374;42.742;23.266;2023-02-10T16:14:22;35.63;;;16.10;;
10651;SDS011;5374;42.742;23.266;2023-02-10T16:17:10;40.50;;;16.40;;
10651;SDS011;5374;42.742;23.266;2023-02-10T16:20:06;52.50;;;15.83;;
10651;SDS011;5374;42.742;23.266;2023-02-10T16:22:55;36.20;;;14.30;;
10651;SDS011;5374;42.742;23.266;2023-02-10T16:25:42;49.13;;;16.00;;
10651;SDS011;5374;42.742;23.266;2023-02-10T16:28:29;37.47;;;15.30;;
10651;SDS011;5374;42.742;23.266;2023-02-10T16:31:17;43.13;;;16.00;;
10651;SDS011;5374;42.742;23.266;2023-02-10T16:34:06;45.37;;;16.10;;
10651;SDS011;5374;42.742;23.266;2023-02-10T16:36:53;50.67;;;15.90;;
10651;SDS011;5374;42.742;23.266;2023-02-10T16:39:41;42.07;;;15.80;;
10651;SDS011;5374;42.742;23.266;2023-02-10T16:42:28;43.13;;;15.57;;
10651;SDS011;5374;42.742;23.266;2023-02-10T16:45:16;159.63;;;54.87;;
10651;SDS011;5374;42.742;23.266;2023-02-10T16:48:03;285.60;;;102.10;;
10651;SDS011;5374;42.742;23.266;2023-02-10T16:50:50;154.33;;;56.03;;